TAF LDOS 280525Z 2806/2906 17005KT CAVOK
                 TX35/2814Z TN21/2903Z
           TEMPO 2821/2904 30009KT
    PROB30 TEMPO 2820/2900 TS FEW070CB=
TAF LDOS 272325Z 2800/2900 VRB02KT CAVOK
                 TX37/2814Z TN19/2803Z
           BECMG 2813/2815 26010KT=
TAF LDOS 271725Z 2718/2818 VRB02KT CAVOK
                 TX37/2814Z TN22/2803Z
           TEMPO 2718/2800 30008KT
           TEMPO 2812/2818 23010KT=
TAF LDOS 271125Z 2712/2812 22004KT CAVOK
                 TX36/2714Z TN22/2803Z
           TEMPO 2712/2718 30008KT=
TAF LDOS 270525Z 2706/2806 20004KT CAVOK
                 TX36/2714Z TN22/2803Z
           TEMPO 2712/2718 30008KT=
TAF LDOS 262325Z 2700/2800 17008KT 9999 SCT045
                 TX34/2713Z TN21/2703Z
           TEMPO 2712/2717 27008KT=